Time;durP1;ratioP1;P1;durP2;ratioP2;P2;SDS_P1;SDS_P2;PMS_P1;PMS_P2;Temp;Humidity;BMP_temperature;BMP_pressure;BME280_temperature;BME280_humidity;BME280_pressure;Samples;Min_cycle;Max_cycle;Signal;HPM_P1;HPM_P2
2023/06/18 00:00:49;;;;;;;10.52;8.90;;;;;;;13.02;100.00;98379.94;4158490;28;20534;-71
2023/06/18 00:02:50;;;;;;;9.80;8.65;;;;;;;12.96;100.00;98377.94;4158061;28;20064;-71
2023/06/18 00:04:50;;;;;;;12.32;9.52;;;;;;;12.86;100.00;98377.53;4158844;28;20069;-71
2023/06/18 00:06:50;;;;;;;12.02;8.48;;;;;;;12.77;100.00;98376.34;4158966;28;20451;-71
2023/06/18 00:08:51;;;;;;;14.38;9.85;;;;;;;12.69;100.00;98375.53;4159274;28;20264;-71
2023/06/18 00:10:52;;;;;;;13.60;8.60;;;;;;;12.63;100.00;98379.88;4158559;28;20421;-71
2023/06/18 00:12:53;;;;;;;9.02;8.02;;;;;;;12.58;100.00;98383.06;4158432;28;20466;-71
2023/06/18 00:14:53;;;;;;;12.20;8.75;;;;;;;12.57;100.00;98385.00;4158340;28;20084;-71
2023/06/18 00:16:53;;;;;;;10.48;8.60;;;;;;;12.49;100.00;98379.84;4158869;28;20049;-71
2023/06/18 00:18:53;;;;;;;9.60;8.60;;;;;;;12.50;100.00;98382.25;4158537;28;20077;-71
2023/06/18 00:20:54;;;;;;;9.70;8.70;;;;;;;12.49;100.00;98383.41;4158741;28;20508;-71
2023/06/18 00:22:54;;;;;;;12.60;8.93;;;;;;;12.46;100.00;98388.97;4157905;28;20045;-71
2023/06/18 00:24:55;;;;;;;10.25;8.63;;;;;;;12.44;100.00;98391.34;4158116;28;20397;-71
2023/06/18 00:26:55;;;;;;;12.40;9.23;;;;;;;12.41;100.00;98390.13;4158969;28;20127;-71
2023/06/18 00:28:55;;;;;;;11.68;9.00;;;;;;;12.41;100.00;98387.34;4158556;28;20441;-71
2023/06/18 00:30:55;;;;;;;10.45;8.32;;;;;;;12.40;100.00;98390.53;4158767;28;20100;-71
2023/06/18 00:32:58;;;;;;;9.30;8.25;;;;;;;12.39;100.00;98395.28;4157439;28;20037;-71
2023/06/18 00:35:00;;;;;;;11.32;9.35;;;;;;;12.47;100.00;98390.56;4158010;28;20107;-71
2023/06/18 00:37:03;;;;;;;;;;;;;;;12.45;100.00;98392.94;4159207;28;20045;-71
2023/06/18 00:39:04;;;;;;;9.02;7.80;;;;;;;12.42;100.00;98385.41;4158297;28;19992;-71
2023/06/18 00:41:04;;;;;;;11.55;9.70;;;;;;;12.31;100.00;98388.13;4158329;28;20131;-71
2023/06/18 00:43:05;;;;;;;9.90;8.55;;;;;;;12.27;100.00;98390.91;4157266;28;20497;-71
2023/06/18 00:45:08;;;;;;;12.02;9.38;;;;;;;12.17;100.00;98380.56;4158257;28;20583;-71
2023/06/18 00:47:13;;;;;;;9.50;8.20;;;;;;;12.08;100.00;98382.88;4158165;28;20374;-71
2023/06/18 00:49:18;;;;;;;10.05;8.65;;;;;;;12.00;100.00;98378.53;4158235;28;20113;-71
2023/06/18 00:51:21;;;;;;;10.10;8.30;;;;;;;11.95;100.00;98388.00;4157970;28;20804;-71
2023/06/18 00:53:21;;;;;;;;;;;;;;;11.99;100.00;98386.03;4157934;28;20041;-71
2023/06/18 00:55:22;;;;;;;9.82;8.63;;;;;;;12.01;100.00;98382.88;4158383;28;20262;-71
2023/06/18 00:57:23;;;;;;;12.10;7.82;;;;;;;11.98;100.00;98380.88;4157947;28;20389;-71
2023/06/18 00:59:23;;;;;;;14.30;8.50;;;;;;;11.91;100.00;98380.84;4158175;28;20048;-71
2023/06/18 01:01:24;;;;;;;10.55;7.93;;;;;;;11.89;100.00;98384.00;4157277;28;20076;-71
2023/06/18 01:03:25;;;;;;;10.50;8.75;;;;;;;11.87;100.00;98380.84;4157324;28;20069;-71
2023/06/18 01:05:26;;;;;;;11.82;8.73;;;;;;;11.85;100.00;98383.22;4157721;28;20037;-71
2023/06/18 01:07:27;;;;;;;11.20;8.70;;;;;;;11.89;100.00;98374.91;4157848;28;20531;-71
2023/06/18 01:09:28;;;;;;;10.45;8.18;;;;;;;11.90;100.00;98391.13;4157967;28;20443;-71
2023/06/18 01:11:29;;;;;;;10.63;8.40;;;;;;;11.82;100.00;98383.97;4157894;28;20037;-71
2023/06/18 01:13:32;;;;;;;10.45;8.23;;;;;;;11.73;100.00;98375.97;4156858;28;20037;-71
2023/06/18 01:15:33;;;;;;;9.80;8.10;;;;;;;11.64;100.00;98378.31;4157166;28;20112;-71
2023/06/18 01:17:34;;;;;;;11.30;9.18;;;;;;;11.59;100.00;98375.91;4157426;28;20080;-71
2023/06/18 01:19:47;;;;;;;10.80;9.45;;;;;;;11.57;100.00;98383.00;4158157;28;20037;-71
2023/06/18 01:21:55;;;;;;;12.45;8.90;;;;;;;11.56;100.00;98381.41;4157485;28;20053;-71
2023/06/18 01:24:00;;;;;;;11.48;9.20;;;;;;;11.51;100.00;98380.63;4156189;28;20044;-71
2023/06/18 01:26:02;;;;;;;10.07;8.13;;;;;;;11.45;100.00;98375.81;4157597;28;20041;-71
2023/06/18 01:28:07;;;;;;;13.02;9.13;;;;;;;11.44;100.00;98371.47;4157108;28;20041;-72
2023/06/18 01:30:11;;;;;;;11.85;9.05;;;;;;;11.42;100.00;98366.31;4158638;28;20134;-71
2023/06/18 01:32:11;;;;;;;13.02;9.75;;;;;;;11.39;100.00;98372.59;4158473;28;20025;-71
2023/06/18 01:34:12;;;;;;;11.30;9.35;;;;;;;11.43;100.00;98373.44;4156388;28;20022;-71
2023/06/18 01:36:13;;;;;;;13.98;11.25;;;;;;;11.47;100.00;98377.00;4157590;28;20522;-71
2023/06/18 01:38:32;;;;;;;13.07;10.38;;;;;;;11.48;100.00;98375.81;4157444;28;20029;-71
2023/06/18 01:40:49;;;;;;;14.32;10.75;;;;;;;11.46;100.00;98377.41;4157512;28;20055;-71
2023/06/18 01:42:55;;;;;;;13.45;10.10;;;;;;;11.50;100.00;98383.75;4156598;28;20038;-71
2023/06/18 01:45:26;;;;;;;12.48;9.85;;;;;;;11.49;100.00;98377.41;4155837;28;20057;-71
2023/06/18 01:47:28;;;;;;;18.95;10.30;;;;;;;11.38;100.00;98381.31;4155739;28;20532;-71
2023/06/18 01:49:29;;;;;;;13.30;9.70;;;;;;;11.29;100.00;98378.88;4158118;28;20072;-71
2023/06/18 01:51:31;;;;;;;10.80;8.57;;;;;;;11.30;100.00;98374.13;4156648;28;20081;-71
2023/06/18 01:53:36;;;;;;;11.48;9.13;;;;;;;11.32;100.00;98371.75;4156622;28;20092;-71
2023/06/18 01:55:38;;;;;;;12.93;9.48;;;;;;;11.31;100.00;98381.25;4156664;28;20397;-71
2023/06/18 01:57:38;;;;;;;13.88;9.10;;;;;;;11.35;100.00;98377.34;4156915;28;20061;-71
2023/06/18 01:59:43;;;;;;;11.00;9.05;;;;;;;11.36;100.00;98384.47;4156287;28;20084;-71
2023/06/18 02:01:43;;;;;;;12.75;10.07;;;;;;;11.29;100.00;98381.66;4156809;28;20060;-71
2023/06/18 02:03:44;;;;;;;12.32;9.90;;;;;;;11.28;100.00;98384.81;4155533;28;20063;-71
2023/06/18 02:05:44;;;;;;;14.23;9.60;;;;;;;11.23;100.00;98375.66;4156227;28;20424;-71
2023/06/18 02:07:45;;;;;;;12.85;9.88;;;;;;;11.23;100.00;98383.97;4156746;28;20041;-71
2023/06/18 02:09:45;;;;;;;14.70;10.85;;;;;;;11.26;100.00;98382.44;4156474;28;20462;-71
2023/06/18 02:11:45;;;;;;;13.48;10.35;;;;;;;11.25;100.00;98387.19;4156707;28;20046;-71
2023/06/18 02:13:46;;;;;;;19.50;12.23;;;;;;;11.20;100.00;98392.25;4155307;28;20569;-71
2023/06/18 02:15:46;;;;;;;16.20;11.60;;;;;;;11.10;100.00;98388.25;4156578;28;20068;-71
2023/06/18 02:17:46;;;;;;;14.32;11.43;;;;;;;11.07;100.00;98391.75;4156714;28;20112;-71
2023/06/18 02:19:47;;;;;;;13.73;11.90;;;;;;;11.09;100.00;98397.72;4156043;28;20079;-71
2023/06/18 02:21:47;;;;;;;15.77;12.45;;;;;;;11.07;100.00;98397.28;4156666;28;20528;-71
2023/06/18 02:23:47;;;;;;;16.75;12.35;;;;;;;10.96;100.00;98402.75;4155839;28;20111;-71
2023/06/18 02:25:48;;;;;;;16.17;12.73;;;;;;;10.91;100.00;98397.56;4156974;28;20375;-71
2023/06/18 02:27:53;;;;;;;15.73;12.35;;;;;;;10.95;100.00;98400.38;4158214;28;20496;-71
2023/06/18 02:29:53;;;;;;;15.63;12.02;;;;;;;10.99;100.00;98406.72;4156664;28;20480;-71
2023/06/18 02:31:53;;;;;;;14.85;12.10;;;;;;;11.00;100.00;98404.75;4156271;28;20065;-71
2023/06/18 02:33:54;;;;;;;15.77;12.05;;;;;;;11.01;100.00;98398.06;4155596;28;20096;-71
2023/06/18 02:35:54;;;;;;;17.98;12.40;;;;;;;10.99;100.00;98401.19;4157473;28;20041;-71
2023/06/18 02:37:55;;;;;;;16.20;12.35;;;;;;;10.89;100.00;98396.34;4159885;28;20040;-71
2023/06/18 02:39:56;;;;;;;17.08;11.82;;;;;;;10.92;100.00;98393.63;4159834;28;20037;-71
2023/06/18 02:41:56;;;;;;;19.50;13.25;;;;;;;10.88;100.00;98397.53;4159161;28;20103;-71
2023/06/18 02:43:56;;;;;;;20.10;12.52;;;;;;;10.80;100.00;98401.41;4158572;28;20056;-71
2023/06/18 02:45:57;;;;;;;16.73;12.35;;;;;;;10.63;100.00;98395.34;4159421;28;20217;-71
2023/06/18 02:47:57;;;;;;;16.25;11.70;;;;;;;10.56;100.00;98398.03;4159754;28;20425;-71
2023/06/18 02:49:58;;;;;;;15.63;12.00;;;;;;;10.54;100.00;98392.09;4159520;28;20394;-71
2023/06/18 02:51:59;;;;;;;15.40;11.40;;;;;;;10.47;100.00;98400.31;4159333;28;20065;-71
2023/06/18 02:53:59;;;;;;;15.80;12.25;;;;;;;10.40;100.00;98391.91;4158994;28;20029;-71
2023/06/18 02:56:01;;;;;;;16.58;12.35;;;;;;;10.41;100.00;98390.75;4159544;28;20076;-71
2023/06/18 02:58:02;;;;;;;15.80;11.88;;;;;;;10.43;100.00;98387.63;4158766;28;20087;-71
2023/06/18 03:00:04;;;;;;;18.45;11.68;;;;;;;10.41;100.00;98386.00;4159521;28;20030;-71
2023/06/18 03:02:05;;;;;;;15.65;10.52;;;;;;;10.40;100.00;98389.16;4159445;28;20021;-71
2023/06/18 03:04:05;;;;;;;16.05;11.75;;;;;;;10.41;100.00;98393.50;4158661;28;20036;-71
2023/06/18 03:06:05;;;;;;;15.90;11.65;;;;;;;10.41;100.00;98388.78;4159047;28;20030;-71
2023/06/18 03:08:06;;;;;;;14.60;10.32;;;;;;;10.40;100.00;98389.94;4159591;28;20136;-71
2023/06/18 03:10:08;;;;;;;13.95;10.85;;;;;;;10.40;100.00;98389.94;4158996;28;20040;-71
2023/06/18 03:12:08;;;;;;;15.90;11.50;;;;;;;10.46;100.00;98390.41;4159086;28;20041;-71
2023/06/18 03:14:08;;;;;;;13.15;10.55;;;;;;;10.57;100.00;98396.03;4158773;28;20033;-71
2023/06/18 03:16:09;;;;;;;12.68;10.60;;;;;;;10.63;100.00;98400.06;4159310;28;20068;-71
2023/06/18 03:18:10;;;;;;;15.20;12.02;;;;;;;10.63;100.00;98394.53;4158923;28;20461;-71
2023/06/18 03:20:11;;;;;;;15.65;11.20;;;;;;;10.63;100.00;98397.31;4158964;28;20234;-71
2023/06/18 03:22:11;;;;;;;18.50;12.13;;;;;;;10.58;100.00;98403.97;4159084;28;20368;-71
2023/06/18 03:24:12;;;;;;;16.42;12.98;;;;;;;10.48;100.00;98390.81;4158331;28;20025;-71
2023/06/18 03:26:12;;;;;;;15.70;12.18;;;;;;;10.39;100.00;98391.13;4159172;28;20033;-71
2023/06/18 03:28:12;;;;;;;15.35;11.48;;;;;;;10.32;100.00;98379.97;4159375;28;20503;-71
2023/06/18 03:30:13;;;;;;;14.27;11.25;;;;;;;10.31;100.00;98383.94;4158800;28;20613;-71
2023/06/18 03:32:14;;;;;;;12.65;10.82;;;;;;;10.33;100.00;98375.25;4159031;28;20369;-71
2023/06/18 03:34:14;;;;;;;16.35;11.77;;;;;;;10.29;100.00;98379.97;4158395;28;20355;-71
2023/06/18 03:36:15;;;;;;;14.48;10.68;;;;;;;10.27;100.00;98379.56;4159038;28;20025;-71
2023/06/18 03:38:15;;;;;;;12.88;10.40;;;;;;;10.29;100.00;98377.19;4159093;28;20049;-71
2023/06/18 03:40:16;;;;;;;14.07;10.48;;;;;;;10.27;100.00;98382.31;4159420;28;20056;-71
2023/06/18 03:42:16;;;;;;;15.05;9.60;;;;;;;10.26;100.00;98384.28;4158483;28;20104;-71
2023/06/18 03:44:16;;;;;;;14.15;10.90;;;;;;;10.24;100.00;98381.09;4157419;28;20033;-71
2023/06/18 03:46:17;;;;;;;14.68;10.52;;;;;;;10.25;100.00;98381.88;4158386;28;20029;-71
2023/06/18 03:48:17;;;;;;;13.93;10.43;;;;;;;10.21;100.00;98386.56;4158816;28;20355;-71
2023/06/18 03:50:18;;;;;;;14.68;10.68;;;;;;;10.25;100.00;98393.72;4158527;28;20029;-71
2023/06/18 03:52:18;;;;;;;13.52;10.63;;;;;;;10.27;100.00;98391.41;4158592;28;20088;-71
2023/06/18 03:54:18;;;;;;;13.32;10.65;;;;;;;10.25;100.00;98381.88;4157954;28;20121;-71
2023/06/18 03:56:20;;;;;;;14.30;10.43;;;;;;;10.22;100.00;98382.59;4158570;28;20022;-71
2023/06/18 03:58:20;;;;;;;15.18;11.20;;;;;;;10.22;100.00;98374.31;4158425;28;20116;-71
2023/06/18 04:00:20;;;;;;;14.45;10.95;;;;;;;10.24;100.00;98375.56;4158205;28;20081;-71
2023/06/18 04:02:21;;;;;;;16.80;11.15;;;;;;;10.24;100.00;98377.53;4159484;28;20037;-71
2023/06/18 04:04:21;;;;;;;15.32;10.48;;;;;;;10.30;100.00;98389.84;4158176;28;20387;-71
2023/06/18 04:06:22;;;;;;;15.80;11.70;;;;;;;10.34;100.00;98385.97;4158236;28;20055;-71
2023/06/18 04:08:23;;;;;;;14.13;10.30;;;;;;;10.41;100.00;98387.97;4159041;28;20053;-71
2023/06/18 04:10:23;;;;;;;17.77;11.38;;;;;;;10.42;100.00;98389.56;4155201;28;20045;-71
2023/06/18 04:12:23;;;;;;;18.33;11.85;;;;;;;10.44;100.00;98391.97;4159035;28;20041;-71
2023/06/18 04:14:25;;;;;;;15.30;12.13;;;;;;;10.44;100.00;98391.97;4158460;28;20041;-71
2023/06/18 04:16:25;;;;;;;14.75;11.00;;;;;;;10.45;100.00;98391.59;4158421;28;20088;-71
2023/06/18 04:18:26;;;;;;;19.25;11.75;;;;;;;10.49;100.00;98384.13;4158220;28;20505;-71
2023/06/18 04:20:26;;;;;;;13.73;11.30;;;;;;;10.60;100.00;98382.28;4158338;28;20124;-71
2023/06/18 04:22:27;;;;;;;15.05;10.77;;;;;;;10.74;100.00;98395.41;4157794;28;20131;-71
2023/06/18 04:24:27;;;;;;;17.45;12.20;;;;;;;10.86;100.00;98392.38;4157579;28;20511;-71
2023/06/18 04:26:27;;;;;;;15.18;11.05;;;;;;;10.96;100.00;98388.13;4158028;28;20443;-71
2023/06/18 04:28:28;;;;;;;13.48;10.00;;;;;;;11.12;100.00;98385.88;4158469;28;20390;-71
2023/06/18 04:30:28;;;;;;;14.82;10.90;;;;;;;11.28;100.00;98373.72;4158022;28;20052;-71
2023/06/18 04:32:28;;;;;;;12.93;10.32;;;;;;;11.42;100.00;98382.94;4157408;28;20443;-71
2023/06/18 04:34:29;;;;;;;15.68;10.55;;;;;;;11.52;100.00;98393.28;4158338;28;20088;-71
2023/06/18 04:36:29;;;;;;;15.60;11.23;;;;;;;11.61;100.00;98390.16;4158002;28;20490;-71
2023/06/18 04:38:30;;;;;;;16.13;12.25;;;;;;;11.66;100.00;98389.00;4158114;28;20053;-71
2023/06/18 04:40:30;;;;;;;14.15;11.02;;;;;;;11.72;100.00;98391.00;4157675;28;20098;-71
2023/06/18 04:42:30;;;;;;;16.08;10.88;;;;;;;11.76;100.00;98397.38;4158418;28;20049;-71
2023/06/18 04:44:31;;;;;;;16.95;12.60;;;;;;;11.81;100.00;98399.00;4157792;28;20067;-71
2023/06/18 04:46:33;;;;;;;15.18;12.55;;;;;;;11.86;100.00;98395.88;4157311;28;20140;-71
2023/06/18 04:48:34;;;;;;;15.48;11.68;;;;;;;11.92;100.00;98399.09;4157499;28;20206;-71
2023/06/18 04:50:35;;;;;;;15.82;12.10;;;;;;;12.01;100.00;98402.28;4157814;28;20082;-71
2023/06/18 04:52:35;;;;;;;14.65;11.73;;;;;;;12.07;100.00;98395.16;4157306;28;20089;-71
2023/06/18 04:54:36;;;;;;;14.93;11.90;;;;;;;12.14;100.00;98400.75;4157320;28;20693;-71
2023/06/18 04:56:36;;;;;;;14.43;11.32;;;;;;;12.20;100.00;98396.41;4158217;28;20076;-71
2023/06/18 04:58:40;;;;;;;14.60;11.63;;;;;;;12.28;100.00;98395.25;4156646;28;20493;-71
2023/06/18 05:00:40;;;;;;;17.13;12.70;;;;;;;12.37;100.00;98390.13;4157444;28;20374;-71
2023/06/18 05:02:41;;;;;;;14.10;12.32;;;;;;;12.44;100.00;98391.34;4156384;28;20067;-71
2023/06/18 05:04:41;;;;;;;15.70;12.57;;;;;;;12.49;100.00;98385.41;4157219;28;20077;-71
2023/06/18 05:06:41;;;;;;;14.80;11.75;;;;;;;12.56;100.00;98393.75;4157779;28;20052;-71
2023/06/18 05:08:42;;;;;;;15.52;12.63;;;;;;;12.67;100.00;98388.22;4156908;28;20044;-71
2023/06/18 05:10:42;;;;;;;15.20;12.60;;;;;;;12.75;100.00;98393.41;4157656;28;20037;-71
2023/06/18 05:12:42;;;;;;;17.55;13.75;;;;;;;12.83;100.00;98391.44;4156871;28;20389;-71
2023/06/18 05:14:43;;;;;;;15.50;12.43;;;;;;;12.93;100.00;98396.19;4157383;28;20061;-71
2023/06/18 05:16:43;;;;;;;15.57;12.57;;;;;;;12.98;100.00;98393.00;4157872;28;20053;-71
2023/06/18 05:18:43;;;;;;;14.85;12.13;;;;;;;13.06;100.00;98397.38;4157200;28;20037;-71
2023/06/18 05:20:44;;;;;;;16.08;12.15;;;;;;;13.12;100.00;98398.56;4157327;28;20525;-71
2023/06/18 05:22:45;;;;;;;14.35;12.27;;;;;;;13.21;100.00;98400.97;4156447;28;20037;-71
2023/06/18 05:24:46;;;;;;;16.67;12.10;;;;;;;13.32;100.00;98406.53;4087599;28;20045;-71
2023/06/18 05:26:46;;;;;;;16.20;12.15;;;;;;;13.41;100.00;98404.16;4144447;28;20064;-71
2023/06/18 05:28:47;;;;;;;16.80;12.10;;;;;;;13.52;100.00;98407.72;4139719;28;20045;-71
2023/06/18 05:30:47;;;;;;;15.20;12.18;;;;;;;13.63;100.00;98404.91;4142791;28;20069;-71
2023/06/18 05:32:48;;;;;;;19.27;13.10;;;;;;;13.69;100.00;98406.88;4145888;28;20431;-71
2023/06/18 05:34:48;;;;;;;15.85;12.48;;;;;;;13.76;100.00;98412.44;4156869;28;20049;-71
2023/06/18 05:36:48;;;;;;;15.45;12.15;;;;;;;13.83;100.00;98413.63;4158774;28;20221;-71
2023/06/18 05:38:50;;;;;;;18.10;13.27;;;;;;;13.91;100.00;98415.97;4156239;28;20042;-71
2023/06/18 05:40:50;;;;;;;16.75;13.45;;;;;;;13.96;100.00;98417.53;4157000;28;20069;-71
2023/06/18 05:42:50;;;;;;;16.95;13.23;;;;;;;14.01;100.00;98419.91;4157590;28;20091;-71
2023/06/18 05:44:51;;;;;;;16.92;13.80;;;;;;;14.09;100.00;98420.69;4158542;28;20120;-71
2023/06/18 05:46:51;;;;;;;15.88;13.15;;;;;;;14.12;100.00;98420.66;4157201;28;20087;-71
2023/06/18 05:48:52;;;;;;;17.42;12.68;;;;;;;14.18;100.00;98416.28;4156025;28;20387;-71
2023/06/18 05:50:52;;;;;;;16.30;13.20;;;;;;;14.24;100.00;98419.44;4158354;28;20041;-71
2023/06/18 05:52:52;;;;;;;20.52;13.65;;;;;;;14.31;100.00;98417.41;4156929;28;20500;-71
2023/06/18 05:54:53;;;;;;;22.70;14.05;;;;;;;14.41;100.00;98420.56;4156996;28;20077;-71
2023/06/18 05:56:53;;;;;;;20.30;13.32;;;;;;;14.47;100.00;98428.09;4157035;28;20065;-71
2023/06/18 05:58:54;;;;;;;16.05;13.23;;;;;;;14.52;100.00;98412.97;4156571;28;20041;-71
2023/06/18 06:00:54;;;;;;;15.13;12.68;;;;;;;14.68;100.00;98421.63;4156530;28;20315;-71
2023/06/18 06:02:55;;;;;;;15.90;13.85;;;;;;;14.83;100.00;98425.13;4155885;28;20448;-71
2023/06/18 06:04:55;;;;;;;16.17;13.23;;;;;;;14.93;100.00;98424.25;4157207;28;20081;-71
2023/06/18 06:06:55;;;;;;;16.92;14.38;;;;;;;15.07;100.00;98423.38;4156290;28;20544;-71
2023/06/18 06:08:55;;;;;;;15.40;12.13;;;;;;;15.15;100.00;98422.91;4156365;28;20045;-71
2023/06/18 06:10:56;;;;;;;15.93;11.57;;;;;;;15.27;100.00;98427.19;4156718;28;20046;-71
2023/06/18 06:12:56;;;;;;;14.70;12.30;;;;;;;15.39;100.00;98429.47;4156012;28;20087;-71
2023/06/18 06:14:56;;;;;;;13.65;11.82;;;;;;;15.50;100.00;98434.97;4156652;28;20037;-71
2023/06/18 06:16:57;;;;;;;14.45;11.80;;;;;;;15.60;100.00;98438.84;4157149;28;20179;-71
2023/06/18 06:18:58;;;;;;;13.30;11.13;;;;;;;15.70;100.00;98437.97;4158993;28;20044;-71
2023/06/18 06:20:58;;;;;;;14.38;11.75;;;;;;;15.81;100.00;98441.47;4156431;28;20030;-71
2023/06/18 06:22:58;;;;;;;15.73;11.27;;;;;;;15.94;100.00;98436.13;4156344;28;20393;-71
2023/06/18 06:24:59;;;;;;;16.17;11.48;;;;;;;16.08;100.00;98432.41;4154856;28;20038;-71
2023/06/18 06:26:59;;;;;;;15.00;11.82;;;;;;;16.17;100.00;98436.28;4156385;28;20120;-71
2023/06/18 06:29:00;;;;;;;16.88;11.98;;;;;;;16.29;100.00;98435.72;4152527;28;20037;-71
2023/06/18 06:31:01;;;;;;;12.60;11.27;;;;;;;16.36;100.00;98443.22;4154556;28;20065;-71
2023/06/18 06:33:01;;;;;;;13.57;11.40;;;;;;;16.40;100.00;98435.63;4152303;28;20081;-71
2023/06/18 06:35:02;;;;;;;13.82;11.70;;;;;;;16.44;100.00;98427.97;4150787;28;20519;-71
2023/06/18 06:37:03;;;;;;;12.77;10.55;;;;;;;16.52;100.00;98429.47;4155135;28;20555;-71
2023/06/18 06:39:04;;;;;;;12.77;10.57;;;;;;;16.63;100.00;98423.72;4149965;28;20064;-71
2023/06/18 06:41:04;;;;;;;15.95;12.07;;;;;;;16.77;100.00;98431.16;4151383;28;20033;-71
2023/06/18 06:43:05;;;;;;;14.57;12.13;;;;;;;16.88;100.00;98431.00;4155447;28;20112;-71
2023/06/18 06:45:06;;;;;;;15.25;12.10;;;;;;;16.96;100.00;98426.88;4156289;28;20140;-71
2023/06/18 06:47:07;;;;;;;15.35;12.80;;;;;;;17.07;100.00;98431.13;4156374;28;20564;-71
2023/06/18 06:49:07;;;;;;;15.85;11.38;;;;;;;17.17;100.00;98426.56;4155060;28;20076;-71
2023/06/18 06:51:07;;;;;;;14.48;11.32;;;;;;;17.24;100.00;98434.06;4157476;28;20510;-71
2023/06/18 06:53:08;;;;;;;13.77;11.57;;;;;;;17.31;100.00;98434.75;4156087;28;20048;-71
2023/06/18 06:55:08;;;;;;;17.10;12.50;;;;;;;17.41;100.00;98433.78;4156330;28;20359;-71
2023/06/18 06:57:08;;;;;;;16.38;12.60;;;;;;;17.49;100.00;98440.03;4156816;28;20103;-71
2023/06/18 06:59:09;;;;;;;14.82;11.82;;;;;;;17.55;100.00;98445.94;4156098;28;20058;-71
2023/06/18 07:01:10;;;;;;;13.55;11.35;;;;;;;17.58;100.00;98434.69;4155114;28;20242;-71
2023/06/18 07:03:10;;;;;;;15.32;11.55;;;;;;;17.69;100.00;98442.88;4154068;28;20041;-71
2023/06/18 07:05:10;;;;;;;15.27;11.20;;;;;;;17.85;100.00;98445.03;4156133;28;20096;-71
2023/06/18 07:07:12;;;;;;;14.63;11.52;;;;;;;18.02;100.00;98435.50;4156274;28;20041;-71
2023/06/18 07:09:12;;;;;;;13.77;11.90;;;;;;;18.19;100.00;98434.38;4155749;28;20443;-71
2023/06/18 07:11:13;;;;;;;13.55;10.88;;;;;;;18.28;100.00;98433.78;4156492;28;20052;-71
2023/06/18 07:13:13;;;;;;;15.35;11.38;;;;;;;18.36;100.00;98432.44;4156909;28;20037;-72
2023/06/18 07:15:13;;;;;;;13.82;11.93;;;;;;;18.49;100.00;98436.16;4155127;28;20443;-71
2023/06/18 07:17:14;;;;;;;13.57;11.15;;;;;;;18.60;100.00;98438.75;4155082;28;20030;-72
2023/06/18 07:19:14;;;;;;;14.45;11.20;;;;;;;18.71;100.00;98427.34;4153898;28;20119;-72
2023/06/18 07:21:14;;;;;;;15.30;11.27;;;;;;;18.79;98.96;98429.56;4155036;28;20072;-71
2023/06/18 07:23:15;;;;;;;11.80;10.55;;;;;;;18.93;99.48;98436.06;4157189;28;20045;-72
2023/06/18 07:25:15;;;;;;;12.23;10.20;;;;;;;19.00;96.72;98431.06;4157818;28;20276;-71
2023/06/18 07:27:16;;;;;;;12.07;10.07;;;;;;;19.05;95.69;98430.56;4157779;28;20038;-72
2023/06/18 07:29:16;;;;;;;11.23;9.27;;;;;;;19.14;90.89;98427.16;4157371;28;20072;-72
2023/06/18 07:31:16;;;;;;;12.15;9.55;;;;;;;19.24;90.59;98428.13;4159779;28;20084;-71
2023/06/18 07:33:17;;;;;;;12.38;10.07;;;;;;;19.33;93.20;98422.69;4157894;28;20037;-71
2023/06/18 07:35:17;;;;;;;13.20;9.43;;;;;;;19.39;92.16;98425.75;4158685;28;20041;-71
2023/06/18 07:37:17;;;;;;;12.98;9.48;;;;;;;19.47;90.99;98425.16;4159078;28;20335;-72
2023/06/18 07:39:18;;;;;;;11.95;9.45;;;;;;;19.52;91.21;98426.63;4158678;28;20121;-72
2023/06/18 07:41:18;;;;;;;11.82;9.82;;;;;;;19.58;92.83;98428.50;4158770;28;20048;-71
2023/06/18 07:43:18;;;;;;;10.70;9.48;;;;;;;19.62;93.55;98420.78;4157852;28;20065;-72
2023/06/18 07:45:19;;;;;;;10.95;9.43;;;;;;;19.75;92.89;98431.28;4159059;28;20033;-72
2023/06/18 07:47:19;;;;;;;10.98;9.88;;;;;;;19.89;92.91;98431.69;4158941;28;20505;-72
2023/06/18 07:49:21;;;;;;;12.23;10.00;;;;;;;20.04;93.58;98429.31;4157900;28;20042;-72
2023/06/18 07:51:21;;;;;;;10.90;9.80;;;;;;;20.18;89.98;98434.50;4159081;28;20049;-72
2023/06/18 07:53:21;;;;;;;11.05;9.95;;;;;;;20.33;89.05;98440.50;4158081;28;20068;-72
2023/06/18 07:55:22;;;;;;;10.65;9.55;;;;;;;20.46;86.88;98437.78;4158205;28;20075;-72
2023/06/18 07:57:23;;;;;;;11.85;10.20;;;;;;;20.50;85.74;98435.66;4158617;28;20373;-72
2023/06/18 07:59:23;;;;;;;11.27;9.15;;;;;;;20.56;85.67;98430.28;4158338;28;20080;-72
2023/06/18 08:01:23;;;;;;;11.45;9.52;;;;;;;20.61;86.29;98430.53;4158531;28;20061;-72
2023/06/18 08:03:23;;;;;;;10.98;9.50;;;;;;;20.71;85.89;98429.41;4157682;28;20077;-72
2023/06/18 08:05:25;;;;;;;10.43;9.07;;;;;;;20.76;83.99;98428.84;4158727;28;20482;-72
2023/06/18 08:07:25;;;;;;;9.80;8.77;;;;;;;20.85;83.26;98427.38;4158120;28;20037;-72
2023/06/18 08:09:25;;;;;;;9.85;8.55;;;;;;;20.93;79.09;98426.72;4158128;28;20141;-72
2023/06/18 08:11:26;;;;;;;10.20;8.63;;;;;;;21.05;76.72;98425.16;4158860;28;20122;-72
2023/06/18 08:13:26;;;;;;;10.65;7.75;;;;;;;21.13;73.98;98422.91;4157623;28;20048;-72
2023/06/18 08:15:27;;;;;;;11.23;7.80;;;;;;;21.25;72.06;98430.53;4158362;28;20076;-72
2023/06/18 08:17:27;;;;;;;9.48;8.07;;;;;;;21.29;72.35;98425.63;4157999;28;20183;-71
2023/06/18 08:19:28;;;;;;;12.07;7.80;;;;;;;21.36;72.90;98419.78;4158201;28;20657;-72
2023/06/18 08:21:28;;;;;;;11.80;7.90;;;;;;;21.44;69.51;98423.94;4158237;28;20132;-72
2023/06/18 08:23:28;;;;;;;8.98;8.07;;;;;;;21.54;70.78;98419.19;4157574;28;20037;-72
2023/06/18 08:25:29;;;;;;;10.75;8.35;;;;;;;21.59;72.56;98413.75;4158009;28;20037;-71
2023/06/18 08:27:29;;;;;;;9.77;8.15;;;;;;;21.66;73.02;98421.16;4158132;28;20060;-71
2023/06/18 08:29:30;;;;;;;10.05;8.68;;;;;;;21.67;73.96;98417.09;4158165;28;20064;-71
2023/06/18 08:31:30;;;;;;;11.55;8.93;;;;;;;21.72;74.38;98415.75;4158023;28;20775;-72
2023/06/18 08:33:30;;;;;;;9.20;8.00;;;;;;;21.75;74.19;98421.25;4156927;28;20597;-71
2023/06/18 08:35:31;;;;;;;10.25;8.23;;;;;;;21.81;74.68;98418.66;4157975;28;20478;-71
2023/06/18 08:37:31;;;;;;;8.85;7.95;;;;;;;21.87;73.36;98416.84;4158102;28;20049;-72
2023/06/18 08:39:31;;;;;;;13.48;9.10;;;;;;;21.92;73.53;98413.41;4157128;28;20430;-72
2023/06/18 08:41:32;;;;;;;8.95;8.05;;;;;;;21.92;73.64;98415.44;4158041;28;20065;-72
2023/06/18 08:43:32;;;;;;;11.20;8.40;;;;;;;21.87;74.00;98409.19;4157343;28;20130;-72
2023/06/18 08:45:33;;;;;;;8.98;8.07;;;;;;;21.88;74.88;98401.50;4158059;28;20048;-72
2023/06/18 08:47:34;;;;;;;10.32;8.60;;;;;;;21.98;74.52;98413.63;4157533;28;20056;-72
2023/06/18 08:49:34;;;;;;;8.90;7.97;;;;;;;22.05;74.27;98417.00;4157482;28;20068;-72
2023/06/18 08:51:38;;;;;;;9.60;8.55;;;;;;;22.12;73.55;98411.13;4158238;28;20111;-71
2023/06/18 08:53:44;;;;;;;11.57;7.57;;;;;;;22.15;70.54;98410.22;4156858;28;20525;-72
2023/06/18 08:55:46;;;;;;;8.35;7.25;;;;;;;22.27;71.65;98400.13;4157596;28;20381;-72
2023/06/18 08:57:58;;;;;;;9.25;8.23;;;;;;;22.46;71.25;98406.66;4157736;28;20037;-72
2023/06/18 08:59:59;;;;;;;17.17;8.48;;;;;;;22.47;70.38;98396.19;4157491;28;20390;-72
2023/06/18 09:02:01;;;;;;;9.07;8.18;;;;;;;22.55;71.07;98401.09;4157315;28;20029;-72
2023/06/18 09:04:02;;;;;;;9.40;7.13;;;;;;;22.60;67.45;98400.50;4156892;28;20045;-72
2023/06/18 09:06:03;;;;;;;9.13;6.80;;;;;;;22.58;67.54;98391.69;4157794;28;20036;-72
2023/06/18 09:08:04;;;;;;;9.52;8.00;;;;;;;22.58;68.30;98397.34;4157625;28;20025;-72
2023/06/18 09:10:05;;;;;;;10.00;7.82;;;;;;;22.58;68.87;98391.69;4156847;28;20021;-72
2023/06/18 09:12:06;;;;;;;10.73;7.53;;;;;;;22.68;68.87;98396.16;4157306;28;20037;-72
2023/06/18 09:14:06;;;;;;;8.77;7.72;;;;;;;22.68;67.69;98393.34;4157066;28;20433;-72